createdAt,value
2019-01-25T00:00:34.412Z,-0.54
2019-01-25T00:01:34.385Z,-0.58
2019-01-25T00:02:34.384Z,-0.55
2019-01-25T00:03:34.364Z,-0.59
2019-01-25T00:04:34.359Z,-0.58
2019-01-25T00:05:34.346Z,-0.59
2019-01-25T00:06:34.370Z,-0.56
2019-01-25T00:07:34.322Z,-0.62
2019-01-25T00:08:34.318Z,-0.67
2019-01-25T00:09:34.303Z,-0.59
2019-01-25T00:10:34.297Z,-0.72
2019-01-25T00:11:34.289Z,-0.72
2019-01-25T00:12:34.295Z,-0.74
2019-01-25T00:13:34.263Z,-0.85
2019-01-25T00:14:34.253Z,-0.80
2019-01-25T00:15:34.245Z,-0.80
2019-01-25T00:16:34.234Z,-0.82
2019-01-25T00:17:34.224Z,-0.79
2019-01-25T00:18:34.228Z,-0.74
2019-01-25T00:19:34.208Z,-0.79
2019-01-25T00:20:34.192Z,-0.76
2019-01-25T00:21:34.176Z,-0.77
2019-01-25T00:22:34.170Z,-0.77
2019-01-25T00:23:34.160Z,-0.76
2019-01-25T00:24:34.169Z,-0.72
2019-01-25T00:25:34.138Z,-0.74
2019-01-25T00:26:34.122Z,-0.72
2019-01-25T00:27:34.113Z,-0.70
2019-01-25T00:28:34.112Z,-0.70
2019-01-25T00:29:34.096Z,-0.72
2019-01-25T00:30:34.099Z,-0.64
2019-01-25T00:31:34.081Z,-0.72
2019-01-25T00:32:34.064Z,-0.79
2019-01-25T00:33:34.064Z,-0.76
2019-01-25T00:34:34.048Z,-0.74
2019-01-25T00:35:34.032Z,-0.74
2019-01-25T00:36:34.050Z,-0.87
2019-01-25T00:37:34.019Z,-0.84
2019-01-25T00:38:34.001Z,-0.87
2019-01-25T00:39:33.990Z,-0.91
2019-01-25T00:40:33.984Z,-0.85
2019-01-25T00:41:33.974Z,-0.87
2019-01-25T00:42:33.980Z,-0.89
2019-01-25T00:43:33.952Z,-0.84
2019-01-25T00:44:33.942Z,-0.91
2019-01-25T00:45:33.936Z,-0.93
2019-01-25T00:46:33.923Z,-0.98
2019-01-25T00:47:33.913Z,-1.01
2019-01-25T00:48:33.920Z,-1.03
2019-01-25T00:49:33.888Z,-0.99
2019-01-25T00:50:33.881Z,-0.98
2019-01-25T00:51:33.875Z,-1.01
2019-01-25T00:52:33.864Z,-0.99
2019-01-25T00:53:33.852Z,-0.95
2019-01-25T00:54:33.864Z,-1.03
2019-01-25T00:55:33.829Z,-0.99
2019-01-25T00:56:33.819Z,-0.99
2019-01-25T00:57:33.810Z,-0.95
2019-01-25T00:58:33.793Z,-0.89
2019-01-25T00:59:33.787Z,-0.87
2019-01-25T01:00:33.800Z,-0.91
2019-01-25T01:01:33.765Z,-0.93
2019-01-25T01:02:33.755Z,-0.93
2019-01-25T01:03:33.743Z,-0.99
2019-01-25T01:04:33.733Z,-0.98
2019-01-25T01:05:33.726Z,-0.98
2019-01-25T01:06:33.729Z,-1.01
2019-01-25T01:07:33.703Z,-1.01
2019-01-25T01:08:33.694Z,-0.99
2019-01-25T01:09:33.684Z,-1.11
2019-01-25T01:10:33.678Z,-1.01
2019-01-25T01:11:33.663Z,-0.96
2019-01-25T01:12:33.669Z,-0.99
2019-01-25T01:13:33.643Z,-0.99
2019-01-25T01:14:33.631Z,-1.01
2019-01-25T01:15:33.623Z,-1.04
2019-01-25T01:16:33.621Z,-1.09
2019-01-25T01:17:33.602Z,-1.14
2019-01-25T01:18:33.608Z,-0.99
2019-01-25T01:19:33.583Z,-0.98
2019-01-25T01:20:33.580Z,-0.99
2019-01-25T01:21:33.557Z,-1.09
2019-01-25T01:22:33.550Z,-0.92
2019-01-25T01:23:33.588Z,-1.01
2019-01-25T01:24:33.544Z,-0.87
2019-01-25T01:25:33.519Z,-0.91
2019-01-25T01:26:33.509Z,-0.91
2019-01-25T01:27:33.496Z,-1.03
2019-01-25T01:28:33.493Z,-0.95
2019-01-25T01:29:33.478Z,-0.96
2019-01-25T01:30:33.483Z,-1.04
2019-01-25T01:31:33.463Z,-0.99
2019-01-25T01:32:33.453Z,-1.07
2019-01-25T01:33:33.433Z,-1.07
2019-01-25T01:34:33.426Z,-1.01
2019-01-25T01:35:33.416Z,-0.99
2019-01-25T01:36:33.439Z,-0.98
2019-01-25T01:37:33.394Z,-1.03
2019-01-25T01:38:33.391Z,-0.95
2019-01-25T01:39:33.405Z,-0.98
2019-01-25T01:40:33.356Z,-1.11
2019-01-25T01:41:33.359Z,-0.96
2019-01-25T01:42:33.375Z,-1.04
2019-01-25T01:43:33.333Z,-1.10
2019-01-25T01:44:33.321Z,-0.95
2019-01-25T01:45:33.312Z,-0.98
2019-01-25T01:46:33.324Z,-1.01
2019-01-25T01:47:33.288Z,-1.01
2019-01-25T01:48:33.307Z,-0.98
2019-01-25T01:49:33.269Z,-1.06
2019-01-25T01:50:33.260Z,-1.06
2019-01-25T01:51:33.244Z,-1.30
2019-01-25T01:52:33.237Z,-1.27
2019-01-25T01:53:33.237Z,-1.28
2019-01-25T01:54:33.240Z,-1.25
2019-01-25T01:55:33.211Z,-1.25
2019-01-25T01:56:33.205Z,-1.19
2019-01-25T01:57:33.186Z,-1.14
2019-01-25T01:58:33.170Z,-1.16
2019-01-25T01:59:33.170Z,-1.22
2019-01-25T02:00:33.164Z,-1.19
2019-01-25T02:01:33.144Z,-1.24
2019-01-25T02:02:33.128Z,-1.13
2019-01-25T02:03:33.122Z,-1.21
2019-01-25T02:04:33.119Z,-1.13
2019-01-25T02:05:33.109Z,-1.13
2019-01-25T02:06:33.125Z,-1.11
2019-01-25T02:07:33.080Z,-1.16
2019-01-25T02:08:33.080Z,-1.10
2019-01-25T02:09:33.059Z,-0.99
2019-01-25T02:10:33.050Z,-1.07
2019-01-25T02:11:33.040Z,-0.96
2019-01-25T02:12:33.059Z,-0.98
2019-01-25T02:13:33.024Z,-1.10
2019-01-25T02:14:33.018Z,-1.09
2019-01-25T02:15:33.001Z,-1.03
2019-01-25T02:16:32.993Z,-1.01
2019-01-25T02:17:32.976Z,-1.09
2019-01-25T02:18:32.989Z,-1.04
2019-01-25T02:19:32.963Z,-1.11
2019-01-25T02:20:32.948Z,-1.01
2019-01-25T02:21:32.935Z,-1.03
2019-01-25T02:22:32.930Z,-1.11
2019-01-25T02:23:32.918Z,-1.04
2019-01-25T02:24:32.921Z,-1.04
2019-01-25T02:25:32.899Z,-1.07
2019-01-25T02:26:32.886Z,-1.14
2019-01-25T02:27:32.877Z,-1.10
2019-01-25T02:28:32.871Z,-1.14
2019-01-25T02:29:32.896Z,-1.16
2019-01-25T02:30:32.871Z,-1.25
2019-01-25T02:31:32.836Z,-1.24
2019-01-25T02:32:32.832Z,-1.24
2019-01-25T02:33:32.814Z,-1.32
2019-01-25T02:34:32.819Z,-1.31
2019-01-25T02:35:32.797Z,-1.37
2019-01-25T02:36:32.811Z,-1.46
2019-01-25T02:37:32.769Z,-1.42
2019-01-25T02:38:32.766Z,-1.55
2019-01-25T02:39:32.761Z,-1.45
2019-01-25T02:40:38.705Z,-1.53
2019-01-25T02:41:33.760Z,-1.60
2019-01-25T02:42:33.306Z,-1.67
2019-01-25T02:43:32.716Z,-1.71
2019-01-25T02:44:32.701Z,-1.76
2019-01-25T02:45:32.698Z,-1.84
2019-01-25T02:46:32.695Z,-1.82
2019-01-25T02:47:32.718Z,-1.89
2019-01-25T02:48:32.659Z,-1.89
2019-01-25T02:49:32.653Z,-1.84
2019-01-25T02:50:32.637Z,-1.84
2019-01-25T02:51:32.639Z,-1.82
2019-01-25T02:52:32.621Z,-1.88
2019-01-25T02:53:32.619Z,-1.88
2019-01-25T02:54:32.598Z,-1.88
2019-01-25T02:55:32.588Z,-1.86
2019-01-25T02:56:32.579Z,-1.89
2019-01-25T02:57:32.573Z,-1.96
2019-01-25T02:58:32.556Z,-1.99
2019-01-25T02:59:32.558Z,-1.97
2019-01-25T03:00:32.546Z,-1.92
2019-01-25T03:01:32.578Z,-1.91
2019-01-25T03:02:32.516Z,-1.94
2019-01-25T03:03:32.508Z,-1.88
2019-01-25T03:04:32.494Z,-1.88
2019-01-25T03:05:32.498Z,-1.84
2019-01-25T03:06:32.473Z,-1.74
2019-01-25T03:07:32.464Z,-1.79
2019-01-25T03:08:32.454Z,-1.78
2019-01-25T03:09:32.448Z,-1.79
2019-01-25T03:10:32.429Z,-1.79
2019-01-25T03:11:32.427Z,-1.85
2019-01-25T03:12:32.407Z,-1.86
2019-01-25T03:13:32.410Z,-1.94
2019-01-25T03:14:32.385Z,-2.03
2019-01-25T03:15:32.385Z,-2.03
2019-01-25T03:16:32.370Z,-2.07
2019-01-25T03:17:32.403Z,-2.12
2019-01-25T03:18:32.341Z,-2.14
2019-01-25T03:19:32.332Z,-2.17
2019-01-25T03:20:32.335Z,-2.30
2019-01-25T03:21:32.322Z,-2.20
2019-01-25T03:22:32.305Z,-2.25
2019-01-25T03:23:32.315Z,-2.15
2019-01-25T03:24:32.283Z,-2.36
2019-01-25T03:25:32.269Z,-2.32
2019-01-25T03:26:32.262Z,-2.37
2019-01-25T03:27:32.254Z,-2.40
2019-01-25T03:28:32.246Z,-2.37
2019-01-25T03:29:32.243Z,-2.27
2019-01-25T03:30:32.306Z,-2.39
2019-01-25T03:31:32.212Z,-2.43
2019-01-25T03:32:32.209Z,-2.34
2019-01-25T03:33:32.189Z,-2.21
2019-01-25T03:34:32.182Z,-2.23
2019-01-25T03:35:32.189Z,-2.14
2019-01-25T03:36:32.164Z,-2.23
2019-01-25T03:37:32.147Z,-2.21
2019-01-25T03:38:32.173Z,-2.17
2019-01-25T03:39:32.129Z,-2.18
2019-01-25T03:40:32.124Z,-2.32
2019-01-25T03:41:32.115Z,-2.32
2019-01-25T03:42:32.093Z,-2.39
2019-01-25T03:43:32.080Z,-2.30
2019-01-25T03:44:32.073Z,-2.30
2019-01-25T03:45:32.066Z,-2.30
2019-01-25T03:46:32.056Z,-2.32
2019-01-25T03:47:32.071Z,-2.30
2019-01-25T03:48:32.031Z,-2.24
2019-01-25T03:49:32.031Z,-2.23
2019-01-25T03:50:32.005Z,-2.34
2019-01-25T03:51:39.042Z,-2.30
2019-01-25T03:52:31.989Z,-2.30
2019-01-25T03:53:31.991Z,-2.20
2019-01-25T03:54:31.973Z,-2.32
2019-01-25T03:55:31.967Z,-2.25
2019-01-25T03:56:31.945Z,-2.25
2019-01-25T03:57:31.938Z,-2.17
2019-01-25T03:58:31.924Z,-2.23
2019-01-25T03:59:31.938Z,-2.25
2019-01-25T04:00:31.903Z,-2.23
2019-01-25T04:01:31.893Z,-2.25
2019-01-25T04:02:31.890Z,-2.36
2019-01-25T04:03:31.877Z,-2.32
2019-01-25T04:04:31.867Z,-2.54
2019-01-25T04:05:31.885Z,-2.49
2019-01-25T04:06:31.844Z,-2.58
2019-01-25T04:07:31.835Z,-2.49
2019-01-25T04:08:31.816Z,-2.57
2019-01-25T04:09:31.812Z,-2.55
2019-01-25T04:10:31.798Z,-2.67
2019-01-25T04:11:31.825Z,-2.61
2019-01-25T04:12:31.781Z,-2.62
2019-01-25T04:13:31.772Z,-2.62
2019-01-25T04:14:31.762Z,-2.67
2019-01-25T04:15:31.744Z,-2.68
2019-01-25T04:16:31.737Z,-2.81
2019-01-25T04:17:31.755Z,-2.82
2019-01-25T04:18:31.750Z,-2.85
2019-01-25T04:19:31.708Z,-2.82
2019-01-25T04:20:31.700Z,-2.94
2019-01-25T04:21:31.690Z,-2.94
2019-01-25T04:22:31.683Z,-2.99
2019-01-25T04:23:31.691Z,-2.99
2019-01-25T04:24:31.659Z,-2.99
2019-01-25T04:25:31.649Z,-3.00
2019-01-25T04:26:31.638Z,-2.93
2019-01-25T04:27:31.626Z,-2.97
2019-01-25T04:28:31.621Z,-3.01
2019-01-25T04:29:31.623Z,-2.97
2019-01-25T04:30:32.824Z,-3.04
2019-01-25T04:31:31.590Z,-3.04
2019-01-25T04:32:31.572Z,-2.93
2019-01-25T04:33:31.568Z,-2.97
2019-01-25T04:34:31.557Z,-3.06
2019-01-25T04:35:31.566Z,-3.04
2019-01-25T04:36:31.539Z,-3.04
2019-01-25T04:37:31.528Z,-3.14
2019-01-25T04:38:31.511Z,-3.01
2019-01-25T04:39:31.506Z,-3.18
2019-01-25T04:40:31.495Z,-3.15
2019-01-25T04:41:31.500Z,-3.03
2019-01-25T04:42:31.473Z,-3.17
2019-01-25T04:43:31.462Z,-3.14
2019-01-25T04:44:31.458Z,-3.15
2019-01-25T04:45:31.446Z,-3.15
2019-01-25T04:46:31.431Z,-3.17
2019-01-25T04:47:31.449Z,-3.17
2019-01-25T04:48:31.414Z,-3.19
2019-01-25T04:49:31.401Z,-3.15
2019-01-25T04:50:31.388Z,-3.25
2019-01-25T04:51:31.379Z,-3.32
2019-01-25T04:52:31.371Z,-3.54
2019-01-25T04:53:31.380Z,-3.63
2019-01-25T04:54:31.358Z,-3.63
2019-01-25T04:55:31.343Z,-3.54
2019-01-25T04:56:31.333Z,-3.51
2019-01-25T04:57:31.327Z,-3.39
2019-01-25T04:58:31.314Z,-3.43
2019-01-25T04:59:31.324Z,-3.43
2019-01-25T05:00:31.294Z,-3.38
2019-01-25T05:01:31.284Z,-3.42
2019-01-25T05:02:31.279Z,-3.43
2019-01-25T05:03:31.258Z,-3.38
2019-01-25T05:04:31.248Z,-3.32
2019-01-25T05:05:31.300Z,-3.33
2019-01-25T05:06:31.229Z,-3.29
2019-01-25T05:07:31.225Z,-3.25
2019-01-25T05:08:31.212Z,-3.38
2019-01-25T05:09:31.197Z,-3.35
2019-01-25T05:10:31.200Z,-3.28
2019-01-25T05:11:31.234Z,-3.38
2019-01-25T05:12:31.192Z,-3.43
2019-01-25T05:13:31.774Z,-3.38
2019-01-25T05:14:31.152Z,-3.40
2019-01-25T05:15:31.140Z,-3.50
2019-01-25T05:16:31.130Z,-3.53
2019-01-25T05:17:31.165Z,-3.51
2019-01-25T05:18:31.111Z,-3.56
2019-01-25T05:19:31.101Z,-3.48
2019-01-25T05:20:31.117Z,-3.57
2019-01-25T05:21:31.101Z,-3.45
2019-01-25T05:22:31.069Z,-3.47
2019-01-25T05:23:31.102Z,-3.50
2019-01-25T05:24:31.076Z,-3.47
2019-01-25T05:25:31.046Z,-3.38
2019-01-25T05:26:31.032Z,-3.45
2019-01-25T05:27:31.017Z,-3.36
2019-01-25T05:28:31.026Z,-3.30
2019-01-25T05:29:31.057Z,-3.35
2019-01-25T05:30:30.987Z,-3.42
2019-01-25T05:31:30.976Z,-3.42
2019-01-25T05:32:30.966Z,-3.39
2019-01-25T05:33:30.952Z,-3.43
2019-01-25T05:34:30.951Z,-3.39
2019-01-25T05:35:30.982Z,-3.24
2019-01-25T05:36:30.926Z,-3.38
2019-01-25T05:37:30.910Z,-3.47
2019-01-25T05:38:30.903Z,-3.36
2019-01-25T05:39:30.893Z,-3.35
2019-01-25T05:40:30.883Z,-3.33
2019-01-25T05:41:30.921Z,-3.30
2019-01-25T05:42:30.862Z,-3.25
2019-01-25T05:43:30.855Z,-3.35
2019-01-25T05:44:30.839Z,-3.29
2019-01-25T05:45:30.831Z,-3.47
2019-01-25T05:46:30.823Z,-3.43
2019-01-25T05:47:30.856Z,-3.56
2019-01-25T05:48:30.806Z,-3.50
2019-01-25T05:49:30.789Z,-3.56
2019-01-25T05:50:30.781Z,-3.53
2019-01-25T05:51:33.684Z,-3.54
2019-01-25T05:52:30.756Z,-3.57
2019-01-25T05:53:31.514Z,-3.57
2019-01-25T05:54:30.736Z,-3.43
2019-01-25T05:55:30.742Z,-3.45
2019-01-25T05:56:30.714Z,-3.39
2019-01-25T05:57:30.715Z,-3.40
2019-01-25T05:58:30.701Z,-3.42
2019-01-25T05:59:30.737Z,-3.45
2019-01-25T06:00:30.673Z,-3.48
2019-01-25T06:01:30.672Z,-3.48
2019-01-25T06:02:30.658Z,-3.43
2019-01-25T06:03:30.647Z,-3.60
2019-01-25T06:04:30.633Z,-3.65
2019-01-25T06:05:30.678Z,-3.71
2019-01-25T06:06:30.612Z,-3.68
2019-01-25T06:07:30.611Z,-3.71
2019-01-25T06:08:30.654Z,-3.63
2019-01-25T06:09:30.587Z,-3.69
2019-01-25T06:10:30.578Z,-3.63
2019-01-25T06:11:35.436Z,-3.66
2019-01-25T06:12:31.551Z,-3.69
2019-01-25T06:13:30.548Z,-3.66
2019-01-25T06:14:30.529Z,-3.69
2019-01-25T06:15:30.526Z,-3.69
2019-01-25T06:16:30.513Z,-3.72
2019-01-25T06:17:30.559Z,-3.72
2019-01-25T06:18:30.498Z,-3.77
2019-01-25T06:19:30.504Z,-3.87
2019-01-25T06:20:30.503Z,-3.98
2019-01-25T06:21:30.466Z,-3.97
2019-01-25T06:22:30.457Z,-3.97
2019-01-25T06:23:30.503Z,-4.05
2019-01-25T06:24:30.440Z,-4.08
2019-01-25T06:25:30.425Z,-4.22
2019-01-25T06:26:30.418Z,-4.32
2019-01-25T06:27:30.405Z,-4.19
2019-01-25T06:28:30.393Z,-4.16
2019-01-25T06:29:30.443Z,-4.11
2019-01-25T06:30:30.366Z,-4.09
2019-01-25T06:31:30.363Z,-4.08
2019-01-25T06:32:30.350Z,-4.04
2019-01-25T06:33:30.346Z,-3.94
2019-01-25T06:34:30.333Z,-3.96
2019-01-25T06:35:30.360Z,-3.97
2019-01-25T06:36:30.316Z,-3.98
2019-01-25T06:37:30.305Z,-3.94
2019-01-25T06:38:30.289Z,-4.01
2019-01-25T06:39:30.318Z,-3.94
2019-01-25T06:40:30.277Z,-4.14
2019-01-25T06:41:30.305Z,-4.19
2019-01-25T06:42:30.244Z,-4.11
2019-01-25T06:43:30.243Z,-4.30
2019-01-25T06:44:30.224Z,-4.22
2019-01-25T06:45:30.223Z,-4.16
2019-01-25T06:46:30.202Z,-4.06
2019-01-25T06:47:30.250Z,-4.06
2019-01-25T06:48:30.186Z,-4.04
2019-01-25T06:49:30.173Z,-3.97
2019-01-25T06:50:30.166Z,-3.88
2019-01-25T06:51:30.157Z,-3.97
2019-01-25T06:52:30.144Z,-3.88
2019-01-25T06:53:30.182Z,-3.82
2019-01-25T06:54:30.119Z,-3.88
2019-01-25T06:55:30.116Z,-3.80
2019-01-25T06:56:30.102Z,-3.80
2019-01-25T06:57:30.093Z,-3.83
2019-01-25T06:58:30.084Z,-3.77
2019-01-25T06:59:30.122Z,-3.76
2019-01-25T07:00:30.067Z,-3.66
2019-01-25T07:01:30.050Z,-3.60
2019-01-25T07:02:30.043Z,-3.69
2019-01-25T07:03:30.041Z,-3.63
2019-01-25T07:04:30.021Z,-3.76
2019-01-25T07:05:30.070Z,-3.60
2019-01-25T07:06:29.998Z,-3.76
2019-01-25T07:07:29.992Z,-3.61
2019-01-25T07:08:29.987Z,-3.61
2019-01-25T07:09:29.970Z,-3.50
2019-01-25T07:10:29.962Z,-3.56
2019-01-25T07:11:29.998Z,-3.50
2019-01-25T07:12:29.947Z,-3.43
2019-01-25T07:13:29.934Z,-3.50
2019-01-25T07:14:29.921Z,-3.58
2019-01-25T07:15:29.909Z,-3.54
2019-01-25T07:16:29.899Z,-3.53
2019-01-25T07:17:29.935Z,-3.60
2019-01-25T07:18:29.880Z,-3.50
2019-01-25T07:19:29.876Z,-3.54
2019-01-25T07:20:29.863Z,-3.43
2019-01-25T07:21:29.845Z,-3.42
2019-01-25T07:22:29.837Z,-3.40
2019-01-25T07:23:29.880Z,-3.35
2019-01-25T07:24:29.822Z,-3.24
2019-01-25T07:25:29.811Z,-3.24
2019-01-25T07:26:29.799Z,-3.24
2019-01-25T07:27:29.786Z,-3.28
2019-01-25T07:28:29.782Z,-3.24
2019-01-25T07:29:29.812Z,-3.29
2019-01-25T07:30:29.773Z,-3.19
2019-01-25T07:31:29.890Z,-3.25
2019-01-25T07:32:29.739Z,-3.18
2019-01-25T07:33:29.723Z,-3.11
2019-01-25T07:34:29.723Z,-3.18
2019-01-25T07:35:29.772Z,-3.09
2019-01-25T07:36:29.852Z,-3.35
2019-01-25T07:37:29.725Z,-3.39
2019-01-25T07:38:29.708Z,-3.47
2019-01-25T07:39:29.923Z,-3.54
2019-01-25T07:40:29.670Z,-3.54
2019-01-25T07:41:29.719Z,-3.50
2019-01-25T07:42:29.634Z,-3.45
2019-01-25T07:43:29.626Z,-3.43
2019-01-25T07:44:29.615Z,-3.28
2019-01-25T07:45:29.604Z,-3.21
2019-01-25T07:46:29.597Z,-3.24
2019-01-25T07:47:29.670Z,-3.19
2019-01-25T07:48:29.580Z,-3.04
2019-01-25T07:49:29.567Z,-2.96
2019-01-25T07:50:29.557Z,-2.97
2019-01-25T07:51:29.544Z,-2.86
2019-01-25T07:52:29.530Z,-2.93
2019-01-25T07:53:29.624Z,-2.85
2019-01-25T07:54:29.706Z,-2.83
2019-01-25T07:55:29.504Z,-2.83
2019-01-25T07:56:29.518Z,-2.94
2019-01-25T07:57:29.482Z,-2.93
2019-01-25T07:58:29.513Z,-3.00
2019-01-25T07:59:29.514Z,-3.00
2019-01-25T08:00:29.465Z,-2.94
2019-01-25T08:01:29.445Z,-3.00
2019-01-25T08:02:29.433Z,-2.97
2019-01-25T08:03:29.433Z,-2.81
2019-01-25T08:04:29.434Z,-2.81
2019-01-25T08:05:29.450Z,-2.73
2019-01-25T08:06:29.421Z,-2.72
2019-01-25T08:07:29.386Z,-2.68
2019-01-25T08:08:29.409Z,-2.65
2019-01-25T08:09:29.370Z,-2.54
2019-01-25T08:10:29.371Z,-2.54
2019-01-25T08:11:29.405Z,-2.43
2019-01-25T08:12:29.404Z,-2.36
2019-01-25T08:13:29.321Z,-2.39
2019-01-25T08:14:29.312Z,-2.34
2019-01-25T08:15:29.325Z,-2.39
2019-01-25T08:16:29.314Z,-2.37
2019-01-25T08:17:29.334Z,-2.42
2019-01-25T08:18:29.270Z,-2.37
2019-01-25T08:19:29.257Z,-2.43
2019-01-25T08:20:29.300Z,-2.40
2019-01-25T08:21:29.235Z,-2.24
2019-01-25T08:22:29.225Z,-2.24
2019-01-25T08:23:29.273Z,-2.23
2019-01-25T08:24:29.222Z,-2.14
2019-01-25T08:25:29.209Z,-2.21
2019-01-25T08:26:29.199Z,-2.15
2019-01-25T08:27:29.177Z,-2.09
2019-01-25T08:28:29.172Z,-2.12
2019-01-25T08:29:29.233Z,-2.06
2019-01-25T08:30:29.159Z,-1.91
2019-01-25T08:31:29.138Z,-1.99
2019-01-25T08:32:29.165Z,-2.00
2019-01-25T08:33:29.116Z,-2.06
2019-01-25T08:34:29.103Z,-2.09
2019-01-25T08:35:29.188Z,-2.12
2019-01-25T08:36:29.081Z,-2.28
2019-01-25T08:37:29.079Z,-2.21
2019-01-25T08:38:29.068Z,-2.23
2019-01-25T08:39:29.065Z,-2.15
2019-01-25T08:40:29.044Z,-2.00
2019-01-25T08:41:29.084Z,-2.02
2019-01-25T08:42:29.026Z,-1.70
2019-01-25T08:43:29.014Z,-1.56
2019-01-25T08:44:29.220Z,-1.45
2019-01-25T08:45:29.018Z,-1.34
2019-01-25T08:46:29.065Z,-1.17
2019-01-25T08:47:29.029Z,-0.87
2019-01-25T08:48:29.249Z,-0.33
2019-01-25T08:49:28.993Z,-0.05
2019-01-25T08:50:28.962Z,-0.04
2019-01-25T08:51:28.963Z,0.27
2019-01-25T08:52:28.940Z,0.84
2019-01-25T08:53:28.992Z,1.32
2019-01-25T08:54:28.897Z,1.89
2019-01-25T08:55:28.927Z,2.23
2019-01-25T08:56:28.871Z,2.59
2019-01-25T08:57:29.043Z,3.05
2019-01-25T08:58:28.873Z,3.54
2019-01-25T08:59:28.893Z,3.74
2019-01-25T09:00:28.836Z,3.60
2019-01-25T09:01:28.827Z,2.87
2019-01-25T09:02:28.814Z,2.23
2019-01-25T09:03:28.804Z,1.58
2019-01-25T09:04:28.795Z,1.17
2019-01-25T09:05:28.831Z,0.72
2019-01-25T09:06:28.779Z,0.35
2019-01-25T09:07:28.764Z,0.16
2019-01-25T09:08:28.754Z,0.06
2019-01-25T09:09:28.743Z,0.05
2019-01-25T09:10:28.732Z,-0.04
2019-01-25T09:11:28.832Z,-0.25
2019-01-25T09:12:28.711Z,-0.12
2019-01-25T09:13:28.701Z,-0.05
2019-01-25T09:14:28.690Z,0.45
2019-01-25T09:15:28.679Z,0.76
2019-01-25T09:16:28.676Z,0.74
2019-01-25T09:17:28.711Z,0.99
2019-01-25T09:18:28.651Z,1.40
2019-01-25T09:19:28.638Z,1.38
2019-01-25T09:20:28.633Z,1.40
2019-01-25T09:21:28.618Z,1.36
2019-01-25T09:22:28.606Z,1.47
2019-01-25T09:23:28.638Z,1.64
2019-01-25T09:24:28.583Z,1.60
2019-01-25T09:25:28.580Z,2.18
2019-01-25T09:26:28.560Z,2.58
2019-01-25T09:27:28.551Z,2.84
2019-01-25T09:28:28.544Z,2.72
2019-01-25T09:29:28.589Z,2.73
2019-01-25T09:30:28.519Z,2.67
2019-01-25T09:31:28.512Z,2.45
2019-01-25T09:32:28.506Z,2.77
2019-01-25T09:33:28.497Z,2.60
2019-01-25T09:34:28.481Z,3.42
2019-01-25T09:35:28.522Z,3.67
2019-01-25T09:36:28.461Z,3.99
2019-01-25T09:37:28.455Z,3.78
2019-01-25T09:38:28.439Z,3.37
2019-01-25T09:39:28.483Z,3.16
2019-01-25T09:40:28.416Z,3.20
2019-01-25T09:41:28.455Z,3.16
2019-01-25T09:42:31.147Z,3.05
2019-01-25T09:43:28.388Z,2.83
2019-01-25T09:44:28.375Z,2.63
2019-01-25T09:45:28.366Z,2.80
2019-01-25T09:46:28.357Z,2.52
2019-01-25T09:47:28.397Z,2.45
2019-01-25T09:48:28.331Z,2.70
2019-01-25T09:49:28.326Z,3.60
2019-01-25T09:50:28.319Z,4.35
2019-01-25T09:51:28.301Z,5.16
2019-01-25T09:52:35.384Z,5.84
2019-01-25T09:53:28.276Z,6.78
2019-01-25T09:54:28.270Z,7.13
2019-01-25T09:55:28.258Z,7.45
2019-01-25T09:56:28.252Z,7.73
2019-01-25T09:57:28.250Z,7.99
2019-01-25T09:58:28.277Z,8.40
2019-01-25T09:59:28.213Z,8.57
2019-01-25T10:00:28.207Z,8.83
2019-01-25T10:01:28.194Z,8.77
2019-01-25T10:02:28.191Z,8.64
2019-01-25T10:03:28.175Z,8.09
2019-01-25T10:04:28.219Z,8.17
2019-01-25T10:05:28.162Z,8.32
2019-01-25T10:06:28.142Z,8.32
2019-01-25T10:07:28.146Z,8.61
2019-01-25T10:08:28.130Z,8.36
2019-01-25T10:09:28.114Z,7.61
2019-01-25T10:10:28.153Z,7.19
2019-01-25T10:11:28.088Z,6.70
2019-01-25T10:12:28.075Z,6.67
2019-01-25T10:13:28.067Z,6.47
2019-01-25T10:14:28.057Z,5.64
2019-01-25T10:15:28.051Z,4.66
2019-01-25T10:16:28.085Z,3.71
2019-01-25T10:17:28.025Z,3.43
2019-01-25T10:18:28.013Z,3.30
2019-01-25T10:19:28.006Z,3.26
2019-01-25T10:20:27.993Z,3.09
2019-01-25T10:21:27.983Z,2.91
2019-01-25T10:22:28.025Z,2.96
2019-01-25T10:23:27.958Z,2.91
2019-01-25T10:24:27.942Z,2.72
2019-01-25T10:25:27.935Z,2.55
2019-01-25T10:26:27.930Z,2.70
2019-01-25T10:27:27.916Z,2.84
2019-01-25T10:28:27.927Z,2.87
2019-01-25T10:29:27.894Z,3.11
2019-01-25T10:30:27.890Z,3.17
2019-01-25T10:31:27.876Z,3.23
2019-01-25T10:32:27.864Z,3.61
2019-01-25T10:33:27.857Z,3.94
2019-01-25T10:34:27.865Z,3.99
2019-01-25T10:35:27.829Z,4.11
2019-01-25T10:36:27.826Z,4.17
2019-01-25T10:37:27.812Z,4.12
2019-01-25T10:38:27.803Z,4.02
2019-01-25T10:39:27.804Z,3.92
2019-01-25T10:40:27.832Z,3.81
2019-01-25T10:41:27.773Z,3.64
2019-01-25T10:42:27.755Z,3.64
2019-01-25T10:43:27.747Z,3.69
2019-01-25T10:44:27.745Z,3.58
2019-01-25T10:45:27.730Z,3.42
2019-01-25T10:46:27.765Z,3.48
2019-01-25T10:47:27.714Z,3.42
2019-01-25T10:48:27.743Z,3.29
2019-01-25T10:49:27.685Z,3.26
2019-01-25T10:50:27.704Z,3.30
2019-01-25T10:51:27.701Z,3.30
2019-01-25T10:52:27.710Z,3.45
2019-01-25T10:53:27.646Z,3.40
2019-01-25T10:54:27.641Z,3.37
2019-01-25T10:55:27.641Z,3.34
2019-01-25T10:56:27.619Z,3.30
2019-01-25T10:57:27.613Z,3.42
2019-01-25T10:58:27.641Z,3.30
2019-01-25T10:59:27.580Z,3.24
2019-01-25T11:00:27.568Z,3.17
2019-01-25T11:01:27.555Z,3.05
2019-01-25T11:02:27.545Z,3.06
2019-01-25T11:03:27.550Z,3.21
2019-01-25T11:04:27.574Z,3.45
2019-01-25T11:05:27.520Z,3.58
2019-01-25T11:06:27.507Z,3.69
2019-01-25T11:07:27.495Z,3.72
2019-01-25T11:08:27.487Z,3.66
2019-01-25T11:09:27.471Z,3.75
2019-01-25T11:10:27.486Z,3.78
2019-01-25T11:11:27.448Z,4.00
2019-01-25T11:12:27.443Z,4.50
2019-01-25T11:13:27.432Z,4.79
2019-01-25T11:14:27.423Z,4.84
2019-01-25T11:15:27.408Z,5.10
2019-01-25T11:16:27.416Z,5.51
2019-01-25T11:17:27.388Z,5.66
2019-01-25T11:18:27.375Z,6.14
2019-01-25T11:19:27.369Z,6.47
2019-01-25T11:20:27.358Z,6.93
2019-01-25T11:21:27.343Z,6.57
2019-01-25T11:22:27.352Z,6.02
2019-01-25T11:23:27.333Z,5.69
2019-01-25T11:24:27.315Z,5.48
2019-01-25T11:25:27.301Z,5.23
2019-01-25T11:26:27.298Z,5.09
2019-01-25T11:27:27.282Z,4.92
2019-01-25T11:28:27.291Z,4.75
2019-01-25T11:29:27.258Z,4.66
2019-01-25T11:30:27.251Z,4.61
2019-01-25T11:31:27.241Z,4.68
2019-01-25T11:32:27.236Z,4.71
2019-01-25T11:33:27.217Z,4.57
2019-01-25T11:34:27.223Z,4.56
2019-01-25T11:35:27.201Z,4.47
2019-01-25T11:36:27.188Z,4.42
2019-01-25T11:37:27.175Z,4.35
2019-01-25T11:38:27.170Z,4.44
2019-01-25T11:39:27.147Z,4.44
2019-01-25T11:40:27.165Z,4.32
2019-01-25T11:41:27.134Z,4.24
2019-01-25T11:42:27.141Z,4.24
2019-01-25T11:43:27.118Z,4.33
2019-01-25T11:44:27.105Z,4.32
2019-01-25T11:45:27.091Z,4.47
2019-01-25T11:46:27.117Z,4.56
2019-01-25T11:47:27.066Z,4.58
2019-01-25T11:48:27.060Z,4.54
2019-01-25T11:49:27.048Z,4.58
2019-01-25T11:50:27.044Z,4.57
2019-01-25T11:51:27.033Z,4.56
2019-01-25T11:52:27.031Z,4.53
2019-01-25T11:53:27.005Z,4.54
2019-01-25T11:54:26.989Z,4.48
2019-01-25T11:55:26.986Z,4.48
2019-01-25T11:56:26.970Z,4.40
2019-01-25T11:57:26.960Z,4.46
2019-01-25T11:58:26.976Z,4.46
2019-01-25T11:59:26.942Z,4.40
2019-01-25T12:00:26.947Z,4.39
2019-01-25T12:01:26.918Z,4.28
2019-01-25T12:02:26.910Z,4.20
2019-01-25T12:03:26.896Z,3.99
2019-01-25T12:04:26.908Z,4.18
2019-01-25T12:05:26.935Z,4.08
2019-01-25T12:06:26.864Z,4.03
2019-01-25T12:07:26.863Z,4.12
2019-01-25T12:08:26.848Z,4.14
2019-01-25T12:09:26.835Z,4.24
2019-01-25T12:10:26.845Z,4.20
2019-01-25T12:11:26.819Z,4.22
2019-01-25T12:12:26.806Z,4.11
2019-01-25T12:13:26.806Z,3.99
2019-01-25T12:14:26.788Z,3.99
2019-01-25T12:15:26.774Z,4.14
2019-01-25T12:16:26.781Z,4.15
2019-01-25T12:17:26.752Z,4.08
2019-01-25T12:18:26.762Z,4.07
2019-01-25T12:19:26.730Z,4.07
2019-01-25T12:20:26.716Z,3.99
2019-01-25T12:21:26.710Z,3.97
2019-01-25T12:22:26.763Z,4.04
2019-01-25T12:23:26.699Z,3.97
2019-01-25T12:24:26.679Z,4.04
2019-01-25T12:25:26.671Z,4.10
2019-01-25T12:26:26.661Z,3.99
2019-01-25T12:27:26.645Z,4.00
2019-01-25T12:28:26.654Z,3.94
2019-01-25T12:29:26.680Z,3.99
2019-01-25T12:30:26.613Z,3.97
2019-01-25T12:31:26.606Z,4.04
2019-01-25T12:32:26.599Z,4.03
2019-01-25T12:33:26.583Z,4.07
2019-01-25T12:34:26.590Z,4.03
2019-01-25T12:35:26.566Z,4.02
2019-01-25T12:36:26.549Z,4.14
2019-01-25T12:37:26.545Z,4.18
2019-01-25T12:38:26.564Z,4.12
2019-01-25T12:39:26.520Z,4.03
2019-01-25T12:40:26.519Z,4.00
2019-01-25T12:41:26.497Z,4.17
2019-01-25T12:42:26.486Z,4.14
2019-01-25T12:43:26.485Z,4.18
2019-01-25T12:44:26.465Z,4.22
2019-01-25T12:45:26.454Z,4.26
2019-01-25T12:46:26.460Z,4.28
2019-01-25T12:47:26.440Z,4.21
2019-01-25T12:48:26.424Z,4.22
2019-01-25T12:49:26.408Z,4.24
2019-01-25T12:50:26.402Z,4.26
2019-01-25T12:51:26.385Z,4.32
2019-01-25T12:52:26.408Z,4.30
2019-01-25T12:53:26.373Z,4.30
2019-01-25T12:54:26.354Z,4.24
2019-01-25T12:55:26.405Z,4.28
2019-01-25T12:56:26.335Z,4.33
2019-01-25T12:57:26.325Z,4.18
2019-01-25T12:58:26.336Z,4.20
2019-01-25T12:59:26.306Z,4.15
2019-01-25T13:00:26.302Z,4.20